sensor_id;sensor_type;location;lat;lon;timestamp;pressure;altitude;pressure_sealevel;temperature;humidity
62057;BME280;48016;50.284;18.860;2022-11-20T00:01:24;97853.27;;;-5.33;78.32
62057;BME280;48016;50.284;18.860;2022-11-20T00:03:52;97854.06;;;-5.35;78.46
62057;BME280;48016;50.284;18.860;2022-11-20T00:06:20;97846.72;;;-5.37;78.39
62057;BME280;48016;50.284;18.860;2022-11-20T00:08:47;97843.04;;;-5.40;78.40
62057;BME280;48016;50.284;18.860;2022-11-20T00:11:18;97841.90;;;-5.45;78.23
62057;BME280;48016;50.284;18.860;2022-11-20T00:13:46;97837.93;;;-5.44;77.90
62057;BME280;48016;50.284;18.860;2022-11-20T00:16:15;97838.13;;;-5.42;77.82
62057;BME280;48016;50.284;18.860;2022-11-20T00:18:42;97843.73;;;-5.40;78.00
62057;BME280;48016;50.284;18.860;2022-11-20T00:21:20;97841.13;;;-5.39;78.21
62057;BME280;48016;50.284;18.860;2022-11-20T00:23:47;97845.11;;;-5.39;78.57
62057;BME280;48016;50.284;18.860;2022-11-20T00:26:17;97842.67;;;-5.39;78.74
62057;BME280;48016;50.284;18.860;2022-11-20T00:28:49;97841.79;;;-5.37;78.67
62057;BME280;48016;50.284;18.860;2022-11-20T00:31:16;97844.77;;;-5.37;78.49
62057;BME280;48016;50.284;18.860;2022-11-20T00:33:43;97847.27;;;-5.39;78.40
62057;BME280;48016;50.284;18.860;2022-11-20T00:36:16;97846.27;;;-5.43;78.45
62057;BME280;48016;50.284;18.860;2022-11-20T00:38:44;97847.94;;;-5.49;78.74
62057;BME280;48016;50.284;18.860;2022-11-20T00:41:13;97845.99;;;-5.52;79.00
62057;BME280;48016;50.284;18.860;2022-11-20T00:43:40;97842.30;;;-5.55;78.96
62057;BME280;48016;50.284;18.860;2022-11-20T00:46:10;97844.14;;;-5.56;78.94
62057;BME280;48016;50.284;18.860;2022-11-20T00:48:38;97842.70;;;-5.56;78.95
62057;BME280;48016;50.284;18.860;2022-11-20T00:51:05;97842.06;;;-5.53;78.89
62057;BME280;48016;50.284;18.860;2022-11-20T00:53:32;97838.55;;;-5.51;78.65
62057;BME280;48016;50.284;18.860;2022-11-20T00:56:04;97835.39;;;-5.50;79.16
62057;BME280;48016;50.284;18.860;2022-11-20T00:58:33;97828.28;;;-5.44;79.00
62057;BME280;48016;50.284;18.860;2022-11-20T01:01:05;97830.42;;;-5.41;79.66
62057;BME280;48016;50.284;18.860;2022-11-20T01:03:33;97830.88;;;-5.40;79.35
62057;BME280;48016;50.284;18.860;2022-11-20T01:06:10;97829.77;;;-5.43;79.60
62057;BME280;48016;50.284;18.860;2022-11-20T01:08:37;97825.63;;;-5.47;79.92
62057;BME280;48016;50.284;18.860;2022-11-20T01:11:07;97820.38;;;-5.51;80.06
62057;BME280;48016;50.284;18.860;2022-11-20T01:13:33;97818.42;;;-5.54;80.21
62057;BME280;48016;50.284;18.860;2022-11-20T01:16:15;97817.52;;;-5.58;80.54
62057;BME280;48016;50.284;18.860;2022-11-20T01:18:44;97815.88;;;-5.61;80.49
62057;BME280;48016;50.284;18.860;2022-11-20T01:21:13;97822.22;;;-5.61;80.56
62057;BME280;48016;50.284;18.860;2022-11-20T01:23:41;97821.37;;;-5.61;80.53
62057;BME280;48016;50.284;18.860;2022-11-20T01:26:13;97821.60;;;-5.60;80.17
62057;BME280;48016;50.284;18.860;2022-11-20T01:28:41;97819.91;;;-5.59;80.06
62057;BME280;48016;50.284;18.860;2022-11-20T01:31:29;97815.44;;;-5.58;80.10
62057;BME280;48016;50.284;18.860;2022-11-20T01:33:57;97807.17;;;-5.58;80.64
62057;BME280;48016;50.284;18.860;2022-11-20T01:36:27;97803.45;;;-5.57;80.76
62057;BME280;48016;50.284;18.860;2022-11-20T01:38:57;97802.11;;;-5.55;80.72
62057;BME280;48016;50.284;18.860;2022-11-20T01:41:25;97795.63;;;-5.59;81.05
62057;BME280;48016;50.284;18.860;2022-11-20T01:44:13;97790.65;;;-5.65;81.72
62057;BME280;48016;50.284;18.860;2022-11-20T01:47:02;97785.42;;;-5.70;82.35
62057;BME280;48016;50.284;18.860;2022-11-20T01:52:00;97783.30;;;-5.80;82.22
62057;BME280;48016;50.284;18.860;2022-11-20T01:54:36;97779.81;;;-5.83;82.22
62057;BME280;48016;50.284;18.860;2022-11-20T01:57:06;97778.98;;;-5.85;82.07
62057;BME280;48016;50.284;18.860;2022-11-20T01:59:35;97786.33;;;-5.85;81.98
62057;BME280;48016;50.284;18.860;2022-11-20T02:02:02;97788.98;;;-5.85;82.10
62057;BME280;48016;50.284;18.860;2022-11-20T02:04:29;97786.04;;;-5.84;82.02
62057;BME280;48016;50.284;18.860;2022-11-20T02:07:05;97786.33;;;-5.79;81.79
62057;BME280;48016;50.284;18.860;2022-11-20T02:09:31;97788.05;;;-5.73;81.37
62057;BME280;48016;50.284;18.860;2022-11-20T02:11:58;97784.76;;;-5.69;81.52
62057;BME280;48016;50.284;18.860;2022-11-20T02:14:26;97783.73;;;-5.66;81.56
62057;BME280;48016;50.284;18.860;2022-11-20T02:16:54;97787.69;;;-5.63;81.78
62057;BME280;48016;50.284;18.860;2022-11-20T02:19:28;97789.89;;;-5.62;81.65
62057;BME280;48016;50.284;18.860;2022-11-20T02:24:27;97795.66;;;-5.64;81.90
62057;BME280;48016;50.284;18.860;2022-11-20T02:27:00;97802.47;;;-5.65;81.79
62057;BME280;48016;50.284;18.860;2022-11-20T02:29:45;97808.56;;;-5.66;81.98
62057;BME280;48016;50.284;18.860;2022-11-20T02:32:29;97812.30;;;-5.65;81.81
62057;BME280;48016;50.284;18.860;2022-11-20T02:34:56;97818.86;;;-5.69;81.58
62057;BME280;48016;50.284;18.860;2022-11-20T02:37:28;97819.94;;;-5.76;81.74
62057;BME280;48016;50.284;18.860;2022-11-20T02:39:56;97819.25;;;-5.82;81.67
62057;BME280;48016;50.284;18.860;2022-11-20T02:42:22;97820.23;;;-5.87;81.67
62057;BME280;48016;50.284;18.860;2022-11-20T02:44:49;97818.77;;;-5.91;81.89
62057;BME280;48016;50.284;18.860;2022-11-20T02:47:15;97816.94;;;-5.91;81.77
62057;BME280;48016;50.284;18.860;2022-11-20T02:49:42;97823.30;;;-5.88;81.54
62057;BME280;48016;50.284;18.860;2022-11-20T02:52:08;97824.45;;;-5.87;81.64
62057;BME280;48016;50.284;18.860;2022-11-20T02:54:35;97822.46;;;-5.83;81.53
62057;BME280;48016;50.284;18.860;2022-11-20T02:57:01;97823.85;;;-5.80;81.84
62057;BME280;48016;50.284;18.860;2022-11-20T02:59:28;97819.18;;;-5.79;82.02
62057;BME280;48016;50.284;18.860;2022-11-20T03:01:54;97820.54;;;-5.78;81.77
62057;BME280;48016;50.284;18.860;2022-11-20T03:04:21;97819.27;;;-5.79;81.89
62057;BME280;48016;50.284;18.860;2022-11-20T03:06:47;97820.27;;;-5.82;82.09
62057;BME280;48016;50.284;18.860;2022-11-20T03:09:14;97818.39;;;-5.82;82.01
62057;BME280;48016;50.284;18.860;2022-11-20T03:11:40;97817.46;;;-5.84;81.88
62057;BME280;48016;50.284;18.860;2022-11-20T03:14:07;97816.09;;;-5.85;81.71
62057;BME280;48016;50.284;18.860;2022-11-20T03:16:33;97815.94;;;-5.88;81.49
62057;BME280;48016;50.284;18.860;2022-11-20T03:19:00;97813.94;;;-5.89;81.01
62057;BME280;48016;50.284;18.860;2022-11-20T03:21:27;97814.10;;;-5.87;81.09
62057;BME280;48016;50.284;18.860;2022-11-20T03:23:54;97816.15;;;-5.85;81.11
62057;BME280;48016;50.284;18.860;2022-11-20T03:26:23;97816.35;;;-5.83;81.32
62057;BME280;48016;50.284;18.860;2022-11-20T03:28:52;97818.95;;;-5.81;81.41
62057;BME280;48016;50.284;18.860;2022-11-20T03:31:22;97820.06;;;-5.79;81.64
62057;BME280;48016;50.284;18.860;2022-11-20T03:33:49;97823.16;;;-5.78;81.65
62057;BME280;48016;50.284;18.860;2022-11-20T03:36:18;97827.64;;;-5.80;81.66
62057;BME280;48016;50.284;18.860;2022-11-20T03:38:44;97826.22;;;-5.83;81.31
62057;BME280;48016;50.284;18.860;2022-11-20T03:41:14;97822.30;;;-5.88;81.37
62057;BME280;48016;50.284;18.860;2022-11-20T03:43:41;97818.39;;;-5.93;81.47
62057;BME280;48016;50.284;18.860;2022-11-20T03:46:08;97816.85;;;-5.98;81.20
62057;BME280;48016;50.284;18.860;2022-11-20T03:48:34;97815.10;;;-6.01;81.13
62057;BME280;48016;50.284;18.860;2022-11-20T03:51:13;97815.34;;;-6.05;81.15
62057;BME280;48016;50.284;18.860;2022-11-20T03:53:42;97813.64;;;-6.09;80.91
62057;BME280;48016;50.284;18.860;2022-11-20T03:56:10;97810.48;;;-6.09;80.85
62057;BME280;48016;50.284;18.860;2022-11-20T03:58:37;97810.55;;;-6.09;80.63
62057;BME280;48016;50.284;18.860;2022-11-20T04:01:21;97809.80;;;-6.13;81.09
62057;BME280;48016;50.284;18.860;2022-11-20T04:03:49;97816.46;;;-6.14;81.34
62057;BME280;48016;50.284;18.860;2022-11-20T04:06:22;97816.16;;;-6.15;81.42
62057;BME280;48016;50.284;18.860;2022-11-20T04:08:49;97817.27;;;-6.17;81.75
62057;BME280;48016;50.284;18.860;2022-11-20T04:11:20;97817.07;;;-6.18;81.84
62057;BME280;48016;50.284;18.860;2022-11-20T04:13:52;97818.41;;;-6.21;81.98
62057;BME280;48016;50.284;18.860;2022-11-20T04:16:20;97816.73;;;-6.23;81.78
62057;BME280;48016;50.284;18.860;2022-11-20T04:18:51;97816.29;;;-6.26;81.88
62057;BME280;48016;50.284;18.860;2022-11-20T04:21:18;97813.70;;;-6.28;81.93
62057;BME280;48016;50.284;18.860;2022-11-20T04:23:45;97817.59;;;-6.30;81.99
62057;BME280;48016;50.284;18.860;2022-11-20T04:26:12;97813.45;;;-6.32;82.19
62057;BME280;48016;50.284;18.860;2022-11-20T04:28:39;97806.25;;;-6.32;82.11
62057;BME280;48016;50.284;18.860;2022-11-20T04:33:34;97800.23;;;-6.30;81.73
62057;BME280;48016;50.284;18.860;2022-11-20T04:36:06;97794.98;;;-6.27;81.89
62057;BME280;48016;50.284;18.860;2022-11-20T04:38:33;97791.77;;;-6.23;81.88
62057;BME280;48016;50.284;18.860;2022-11-20T04:41:01;97789.11;;;-6.21;81.79
62057;BME280;48016;50.284;18.860;2022-11-20T04:43:28;97785.13;;;-6.18;81.75
62057;BME280;48016;50.284;18.860;2022-11-20T04:45:56;97781.95;;;-6.16;81.67
62057;BME280;48016;50.284;18.860;2022-11-20T04:48:24;97780.30;;;-6.16;81.58
62057;BME280;48016;50.284;18.860;2022-11-20T04:50:52;97777.55;;;-6.16;81.71
62057;BME280;48016;50.284;18.860;2022-11-20T04:53:19;97775.78;;;-6.16;81.66
62057;BME280;48016;50.284;18.860;2022-11-20T04:55:46;97771.91;;;-6.14;81.71
62057;BME280;48016;50.284;18.860;2022-11-20T04:58:13;97767.45;;;-6.15;81.75
62057;BME280;48016;50.284;18.860;2022-11-20T05:00:40;97767.09;;;-6.15;81.71
62057;BME280;48016;50.284;18.860;2022-11-20T05:03:06;97764.85;;;-6.16;81.56
62057;BME280;48016;50.284;18.860;2022-11-20T05:05:34;97761.53;;;-6.15;81.45
62057;BME280;48016;50.284;18.860;2022-11-20T05:08:01;97756.98;;;-6.14;81.16
62057;BME280;48016;50.284;18.860;2022-11-20T05:10:27;97749.55;;;-6.11;81.08
62057;BME280;48016;50.284;18.860;2022-11-20T05:12:54;97746.70;;;-6.11;81.20
62057;BME280;48016;50.284;18.860;2022-11-20T05:15:20;97746.07;;;-6.08;81.20
62057;BME280;48016;50.284;18.860;2022-11-20T05:17:51;97745.55;;;-6.07;81.52
62057;BME280;48016;50.284;18.860;2022-11-20T05:20:19;97744.83;;;-6.05;81.47
62057;BME280;48016;50.284;18.860;2022-11-20T05:22:45;97743.05;;;-6.03;81.23
62057;BME280;48016;50.284;18.860;2022-11-20T05:25:12;97748.86;;;-6.05;81.30
62057;BME280;48016;50.284;18.860;2022-11-20T05:27:38;97751.60;;;-6.05;81.21
62057;BME280;48016;50.284;18.860;2022-11-20T05:30:06;97746.92;;;-6.05;81.07
62057;BME280;48016;50.284;18.860;2022-11-20T05:32:32;97740.73;;;-6.10;81.15
62057;BME280;48016;50.284;18.860;2022-11-20T05:34:59;97744.20;;;-6.14;80.87
62057;BME280;48016;50.284;18.860;2022-11-20T05:37:26;97745.79;;;-6.18;80.97
62057;BME280;48016;50.284;18.860;2022-11-20T05:39:52;97742.99;;;-6.21;81.28
62057;BME280;48016;50.284;18.860;2022-11-20T05:42:19;97739.05;;;-6.22;81.15
62057;BME280;48016;50.284;18.860;2022-11-20T05:44:59;97738.23;;;-6.19;80.89
62057;BME280;48016;50.284;18.860;2022-11-20T05:47:27;97743.86;;;-6.16;81.02
62057;BME280;48016;50.284;18.860;2022-11-20T05:49:54;97739.04;;;-6.12;81.28
62057;BME280;48016;50.284;18.860;2022-11-20T05:52:21;97737.27;;;-6.07;81.22
62057;BME280;48016;50.284;18.860;2022-11-20T05:54:47;97736.73;;;-6.04;81.35
62057;BME280;48016;50.284;18.860;2022-11-20T05:57:14;97735.66;;;-6.00;81.12
62057;BME280;48016;50.284;18.860;2022-11-20T05:59:41;97731.44;;;-6.00;81.05
62057;BME280;48016;50.284;18.860;2022-11-20T06:02:08;97735.02;;;-6.01;81.07
62057;BME280;48016;50.284;18.860;2022-11-20T06:04:36;97736.70;;;-6.03;80.78
62057;BME280;48016;50.284;18.860;2022-11-20T06:07:05;97734.06;;;-6.10;80.49
62057;BME280;48016;50.284;18.860;2022-11-20T06:09:32;97736.33;;;-6.16;80.38
62057;BME280;48016;50.284;18.860;2022-11-20T06:11:59;97741.85;;;-6.25;80.05
62057;BME280;48016;50.284;18.860;2022-11-20T06:14:25;97743.51;;;-6.32;80.03
62057;BME280;48016;50.284;18.860;2022-11-20T06:16:52;97744.17;;;-6.38;80.33
62057;BME280;48016;50.284;18.860;2022-11-20T06:19:18;97750.05;;;-6.40;80.21
62057;BME280;48016;50.284;18.860;2022-11-20T06:21:47;97747.20;;;-6.41;80.33
62057;BME280;48016;50.284;18.860;2022-11-20T06:24:14;97742.06;;;-6.42;80.27
62057;BME280;48016;50.284;18.860;2022-11-20T06:26:41;97747.04;;;-6.38;80.25
62057;BME280;48016;50.284;18.860;2022-11-20T06:29:07;97750.90;;;-6.33;80.15
62057;BME280;48016;50.284;18.860;2022-11-20T06:31:34;97749.84;;;-6.27;80.44
62057;BME280;48016;50.284;18.860;2022-11-20T06:34:04;97745.89;;;-6.24;80.37
62057;BME280;48016;50.284;18.860;2022-11-20T06:36:32;97740.48;;;-6.22;80.74
62057;BME280;48016;50.284;18.860;2022-11-20T06:39:00;97739.29;;;-6.19;80.57
62057;BME280;48016;50.284;18.860;2022-11-20T06:41:26;97734.91;;;-6.18;80.52
62057;BME280;48016;50.284;18.860;2022-11-20T06:43:54;97735.02;;;-6.17;80.76
62057;BME280;48016;50.284;18.860;2022-11-20T06:46:20;97739.73;;;-6.15;80.59
62057;BME280;48016;50.284;18.860;2022-11-20T06:48:48;97734.52;;;-6.12;80.50
62057;BME280;48016;50.284;18.860;2022-11-20T06:51:16;97730.19;;;-6.13;80.38
62057;BME280;48016;50.284;18.860;2022-11-20T06:53:43;97726.57;;;-6.10;80.62
62057;BME280;48016;50.284;18.860;2022-11-20T06:56:09;97723.56;;;-6.04;80.88
62057;BME280;48016;50.284;18.860;2022-11-20T06:58:36;97722.62;;;-5.96;80.71
62057;BME280;48016;50.284;18.860;2022-11-20T07:01:09;97721.14;;;-5.86;80.32
62057;BME280;48016;50.284;18.860;2022-11-20T07:03:37;97714.00;;;-5.72;80.41
62057;BME280;48016;50.284;18.860;2022-11-20T07:06:04;97712.38;;;-5.54;80.50
62057;BME280;48016;50.284;18.860;2022-11-20T07:08:31;97709.63;;;-5.40;80.85
62057;BME280;48016;50.284;18.860;2022-11-20T07:10:59;97703.66;;;-5.24;80.75
62057;BME280;48016;50.284;18.860;2022-11-20T07:13:27;97708.72;;;-5.11;80.89
62057;BME280;48016;50.284;18.860;2022-11-20T07:15:53;97710.85;;;-4.98;80.85
62057;BME280;48016;50.284;18.860;2022-11-20T07:18:20;97713.92;;;-4.85;80.95
62057;BME280;48016;50.284;18.860;2022-11-20T07:20:47;97712.14;;;-4.69;80.91
62057;BME280;48016;50.284;18.860;2022-11-20T07:23:13;97707.65;;;-4.54;80.76
62057;BME280;48016;50.284;18.860;2022-11-20T07:25:40;97704.36;;;-4.45;80.63
62057;BME280;48016;50.284;18.860;2022-11-20T07:28:06;97710.20;;;-4.41;80.33
62057;BME280;48016;50.284;18.860;2022-11-20T07:30:33;97712.45;;;-4.38;80.77
62057;BME280;48016;50.284;18.860;2022-11-20T07:32:59;97711.93;;;-4.28;80.70
62057;BME280;48016;50.284;18.860;2022-11-20T07:35:26;97710.39;;;-4.20;80.77
62057;BME280;48016;50.284;18.860;2022-11-20T07:37:52;97707.52;;;-4.12;80.55
62057;BME280;48016;50.284;18.860;2022-11-20T07:40:19;97704.56;;;-4.02;80.55
62057;BME280;48016;50.284;18.860;2022-11-20T07:42:54;97707.08;;;-3.91;80.54
62057;BME280;48016;50.284;18.860;2022-11-20T07:45:23;97705.97;;;-3.77;80.67
62057;BME280;48016;50.284;18.860;2022-11-20T07:47:50;97697.30;;;-3.64;80.78
62057;BME280;48016;50.284;18.860;2022-11-20T07:50:18;97694.89;;;-3.52;80.65
62057;BME280;48016;50.284;18.860;2022-11-20T07:52:45;97697.70;;;-3.43;80.78
62057;BME280;48016;50.284;18.860;2022-11-20T07:55:12;97699.34;;;-3.39;80.40
62057;BME280;48016;50.284;18.860;2022-11-20T07:57:38;97706.10;;;-3.37;80.53
62057;BME280;48016;50.284;18.860;2022-11-20T08:00:07;97710.13;;;-3.34;80.46
62057;BME280;48016;50.284;18.860;2022-11-20T08:02:38;97707.19;;;-3.31;80.30
62057;BME280;48016;50.284;18.860;2022-11-20T08:05:06;97710.57;;;-3.26;80.21
62057;BME280;48016;50.284;18.860;2022-11-20T08:07:41;97709.68;;;-3.23;80.09
62057;BME280;48016;50.284;18.860;2022-11-20T08:10:10;97710.81;;;-3.20;79.85
62057;BME280;48016;50.284;18.860;2022-11-20T08:12:48;97714.20;;;-3.16;79.91
62057;BME280;48016;50.284;18.860;2022-11-20T08:15:33;97725.02;;;-3.12;79.81
62057;BME280;48016;50.284;18.860;2022-11-20T08:20:27;97731.31;;;-3.00;80.24
62057;BME280;48016;50.284;18.860;2022-11-20T08:22:59;97729.02;;;-2.94;80.24
62057;BME280;48016;50.284;18.860;2022-11-20T08:25:27;97728.55;;;-2.91;79.93
62057;BME280;48016;50.284;18.860;2022-11-20T08:27:54;97735.66;;;-2.90;79.74
62057;BME280;48016;50.284;18.860;2022-11-20T08:30:20;97734.85;;;-2.88;79.64
62057;BME280;48016;50.284;18.860;2022-11-20T08:32:47;97728.69;;;-2.84;79.75
62057;BME280;48016;50.284;18.860;2022-11-20T08:35:13;97731.65;;;-2.78;79.64
62057;BME280;48016;50.284;18.860;2022-11-20T08:37:40;97735.08;;;-2.77;79.26
62057;BME280;48016;50.284;18.860;2022-11-20T08:40:11;97732.88;;;-2.76;79.13
62057;BME280;48016;50.284;18.860;2022-11-20T08:42:45;97735.04;;;-2.74;79.04
62057;BME280;48016;50.284;18.860;2022-11-20T08:45:12;97738.45;;;-2.68;79.18
62057;BME280;48016;50.284;18.860;2022-11-20T08:47:39;97741.98;;;-2.67;79.03
62057;BME280;48016;50.284;18.860;2022-11-20T08:50:06;97743.15;;;-2.63;79.34
62057;BME280;48016;50.284;18.860;2022-11-20T08:52:32;97740.63;;;-2.55;79.54
62057;BME280;48016;50.284;18.860;2022-11-20T08:54:59;97738.10;;;-2.56;79.55
62057;BME280;48016;50.284;18.860;2022-11-20T08:57:25;97738.73;;;-2.59;79.23
62057;BME280;48016;50.284;18.860;2022-11-20T08:59:52;97732.73;;;-2.59;79.25
62057;BME280;48016;50.284;18.860;2022-11-20T09:02:18;97732.82;;;-2.55;79.18
62057;BME280;48016;50.284;18.860;2022-11-20T09:04:45;97735.89;;;-2.51;78.88
62057;BME280;48016;50.284;18.860;2022-11-20T09:07:12;97734.18;;;-2.50;78.81
62057;BME280;48016;50.284;18.860;2022-11-20T09:09:38;97738.73;;;-2.48;78.75
62057;BME280;48016;50.284;18.860;2022-11-20T09:12:05;97740.95;;;-2.43;78.82
62057;BME280;48016;50.284;18.860;2022-11-20T09:14:31;97736.34;;;-2.36;78.88
62057;BME280;48016;50.284;18.860;2022-11-20T09:16:58;97733.23;;;-2.28;78.54
62057;BME280;48016;50.284;18.860;2022-11-20T09:19:24;97740.48;;;-2.18;78.35
62057;BME280;48016;50.284;18.860;2022-11-20T09:21:51;97738.25;;;-2.07;78.33
62057;BME280;48016;50.284;18.860;2022-11-20T09:24:18;97726.04;;;-1.97;78.48
62057;BME280;48016;50.284;18.860;2022-11-20T09:26:45;97725.40;;;-1.87;78.66
62057;BME280;48016;50.284;18.860;2022-11-20T09:29:11;97725.07;;;-1.74;78.57
62057;BME280;48016;50.284;18.860;2022-11-20T09:31:38;97718.35;;;-1.63;78.53
62057;BME280;48016;50.284;18.860;2022-11-20T09:34:04;97716.39;;;-1.52;78.03
62057;BME280;48016;50.284;18.860;2022-11-20T09:36:31;97715.59;;;-1.47;77.77
62057;BME280;48016;50.284;18.860;2022-11-20T09:38:58;97708.83;;;-1.38;77.93
62057;BME280;48016;50.284;18.860;2022-11-20T09:41:41;97709.20;;;-1.25;77.68
62057;BME280;48016;50.284;18.860;2022-11-20T09:47:04;97707.95;;;-1.17;77.06
62057;BME280;48016;50.284;18.860;2022-11-20T09:50:10;97705.30;;;-1.09;77.05
62057;BME280;48016;50.284;18.860;2022-11-20T09:55:25;97696.40;;;-0.90;76.50
62057;BME280;48016;50.284;18.860;2022-11-20T09:57:52;97693.61;;;-0.83;76.66
62057;BME280;48016;50.284;18.860;2022-11-20T10:00:19;97694.56;;;-0.80;76.08
62057;BME280;48016;50.284;18.860;2022-11-20T10:03:17;97690.59;;;-0.74;76.24
62057;BME280;48016;50.284;18.860;2022-11-20T10:05:52;97687.61;;;-0.62;76.38
62057;BME280;48016;50.284;18.860;2022-11-20T10:08:22;97685.17;;;-0.51;76.05
62057;BME280;48016;50.284;18.860;2022-11-20T10:10:54;97682.20;;;-0.44;76.18
62057;BME280;48016;50.284;18.860;2022-11-20T10:16:40;97675.91;;;-0.30;76.39
62057;BME280;48016;50.284;18.860;2022-11-20T10:27:40;97664.41;;;-0.13;75.84
62057;BME280;48016;50.284;18.860;2022-11-20T10:30:15;97665.56;;;-0.12;75.76
62057;BME280;48016;50.284;18.860;2022-11-20T10:32:46;97667.77;;;-0.14;75.66
62057;BME280;48016;50.284;18.860;2022-11-20T10:35:36;97661.67;;;-0.16;75.34
62057;BME280;48016;50.284;18.860;2022-11-20T10:38:19;97660.08;;;-0.11;75.37
62057;BME280;48016;50.284;18.860;2022-11-20T10:40:52;97651.91;;;-0.08;75.20
62057;BME280;48016;50.284;18.860;2022-11-20T10:43:27;97643.34;;;-0.05;75.14
62057;BME280;48016;50.284;18.860;2022-11-20T10:46:03;97635.61;;;0.03;75.10
62057;BME280;48016;50.284;18.860;2022-11-20T10:48:32;97631.80;;;0.11;75.28
62057;BME280;48016;50.284;18.860;2022-11-20T10:51:18;97635.45;;;0.18;75.49
62057;BME280;48016;50.284;18.860;2022-11-20T10:53:53;97627.31;;;0.27;75.67
62057;BME280;48016;50.284;18.860;2022-11-20T10:56:31;97628.41;;;0.29;75.20
62057;BME280;48016;50.284;18.860;2022-11-20T10:59:45;97630.66;;;0.34;75.05
62057;BME280;48016;50.284;18.860;2022-11-20T11:01:51;97628.77;;;0.39;74.23
62057;BME280;48016;50.284;18.860;2022-11-20T11:07:23;97625.42;;;0.35;73.79
62057;BME280;48016;50.284;18.860;2022-11-20T11:09:55;97618.69;;;0.33;73.85
62057;BME280;48016;50.284;18.860;2022-11-20T11:12:25;97615.19;;;0.33;73.66
62057;BME280;48016;50.284;18.860;2022-11-20T11:14:54;97618.76;;;0.33;73.58
62057;BME280;48016;50.284;18.860;2022-11-20T11:17:31;97625.09;;;0.36;73.79
62057;BME280;48016;50.284;18.860;2022-11-20T11:20:16;97625.54;;;0.41;73.81
62057;BME280;48016;50.284;18.860;2022-11-20T11:22:54;97627.25;;;0.40;73.44
62057;BME280;48016;50.284;18.860;2022-11-20T11:25:36;97628.85;;;0.41;73.84
62057;BME280;48016;50.284;18.860;2022-11-20T11:28:23;97628.27;;;0.47;74.31
62057;BME280;48016;50.284;18.860;2022-11-20T11:30:52;97629.07;;;0.57;74.47
62057;BME280;48016;50.284;18.860;2022-11-20T11:33:21;97626.41;;;0.58;74.83
62057;BME280;48016;50.284;18.860;2022-11-20T11:35:54;97629.27;;;0.55;74.60
62057;BME280;48016;50.284;18.860;2022-11-20T11:38:31;97620.90;;;0.54;74.60
62057;BME280;48016;50.284;18.860;2022-11-20T11:41:00;97618.08;;;0.53;74.54
62057;BME280;48016;50.284;18.860;2022-11-20T11:43:32;97611.23;;;0.51;74.30
62057;BME280;48016;50.284;18.860;2022-11-20T11:49:16;97598.61;;;0.43;74.34
62057;BME280;48016;50.284;18.860;2022-11-20T11:54:30;97593.92;;;0.37;74.38
62057;BME280;48016;50.284;18.860;2022-11-20T11:57:01;97588.60;;;0.37;74.36
62057;BME280;48016;50.284;18.860;2022-11-20T11:59:51;97595.92;;;0.38;74.57
62057;BME280;48016;50.284;18.860;2022-11-20T12:02:36;97596.12;;;0.42;75.01
62057;BME280;48016;50.284;18.860;2022-11-20T12:05:22;97599.29;;;0.50;75.34
62057;BME280;48016;50.284;18.860;2022-11-20T12:07:54;97597.48;;;0.58;75.82
62057;BME280;48016;50.284;18.860;2022-11-20T12:15:38;97592.91;;;0.68;75.36
62057;BME280;48016;50.284;18.860;2022-11-20T12:18:15;97589.23;;;0.68;75.12
62057;BME280;48016;50.284;18.860;2022-11-20T12:20:48;97584.52;;;0.68;74.87
62057;BME280;48016;50.284;18.860;2022-11-20T12:25:54;97575.38;;;0.63;75.07
62057;BME280;48016;50.284;18.860;2022-11-20T12:36:32;97555.05;;;0.58;75.20
62057;BME280;48016;50.284;18.860;2022-11-20T12:39:10;97548.11;;;0.63;75.31
62057;BME280;48016;50.284;18.860;2022-11-20T12:50:32;97529.67;;;0.56;75.17
62057;BME280;48016;50.284;18.860;2022-11-20T12:53:09;97531.04;;;0.53;75.13
62057;BME280;48016;50.284;18.860;2022-11-20T12:55:51;97537.85;;;0.47;75.00
62057;BME280;48016;50.284;18.860;2022-11-20T12:58:49;97529.23;;;0.44;75.20
62057;BME280;48016;50.284;18.860;2022-11-20T13:07:14;97527.84;;;0.43;75.08
62057;BME280;48016;50.284;18.860;2022-11-20T13:09:47;97531.55;;;0.45;75.33
62057;BME280;48016;50.284;18.860;2022-11-20T13:12:30;97530.12;;;0.49;75.53
62057;BME280;48016;50.284;18.860;2022-11-20T13:15:05;97527.27;;;0.55;75.74
62057;BME280;48016;50.284;18.860;2022-11-20T13:17:59;97523.05;;;0.57;75.89
62057;BME280;48016;50.284;18.860;2022-11-20T13:20:26;97518.06;;;0.56;75.90
62057;BME280;48016;50.284;18.860;2022-11-20T13:22:55;97517.15;;;0.56;75.86
62057;BME280;48016;50.284;18.860;2022-11-20T13:25:31;97514.95;;;0.54;75.62
62057;BME280;48016;50.284;18.860;2022-11-20T13:28:00;97511.42;;;0.46;75.55
62057;BME280;48016;50.284;18.860;2022-11-20T13:30:28;97510.27;;;0.38;75.51
62057;BME280;48016;50.284;18.860;2022-11-20T13:35:33;97508.00;;;0.24;75.45
62057;BME280;48016;50.284;18.860;2022-11-20T13:38:02;97512.48;;;0.17;75.61
62057;BME280;48016;50.284;18.860;2022-11-20T13:40:31;97512.64;;;0.12;75.69
62057;BME280;48016;50.284;18.860;2022-11-20T13:43:21;97506.48;;;0.08;75.73
62057;BME280;48016;50.284;18.860;2022-11-20T13:46:00;97506.23;;;0.05;76.00
62057;BME280;48016;50.284;18.860;2022-11-20T13:48:33;97507.73;;;0.03;76.26
62057;BME280;48016;50.284;18.860;2022-11-20T14:01:59;97485.61;;;0.01;76.64
62057;BME280;48016;50.284;18.860;2022-11-20T14:04:30;97487.82;;;0.01;76.72
62057;BME280;48016;50.284;18.860;2022-11-20T14:06:59;97491.61;;;0.00;76.81
62057;BME280;48016;50.284;18.860;2022-11-20T14:09:28;97493.54;;;-0.01;76.88
62057;BME280;48016;50.284;18.860;2022-11-20T14:11:55;97496.04;;;-0.04;76.83
62057;BME280;48016;50.284;18.860;2022-11-20T14:14:31;97486.30;;;-0.07;76.80
62057;BME280;48016;50.284;18.860;2022-11-20T14:17:17;97490.52;;;-0.05;77.00
62057;BME280;48016;50.284;18.860;2022-11-20T14:19:45;97490.15;;;0.00;77.04
62057;BME280;48016;50.284;18.860;2022-11-20T14:22:26;97492.62;;;0.06;77.20
62057;BME280;48016;50.284;18.860;2022-11-20T14:25:06;97493.80;;;0.10;77.51
62057;BME280;48016;50.284;18.860;2022-11-20T14:27:36;97484.64;;;0.11;77.63
62057;BME280;48016;50.284;18.860;2022-11-20T14:30:04;97483.67;;;0.10;77.71